sensor_id;sensor_type;location;lat;lon;timestamp;pressure;altitude;pressure_sealevel;temperature;humidity
24302;BME280;12421;49.732;20.078;2022-12-18T00:09:13;98120.94;;;-3.42;75.27
24302;BME280;12421;49.732;20.078;2022-12-18T00:19:17;98135.48;;;-3.51;75.29
24302;BME280;12421;49.732;20.078;2022-12-18T00:29:21;98150.79;;;-3.45;75.41
24302;BME280;12421;49.732;20.078;2022-12-18T00:39:25;98153.80;;;-3.46;75.11
24302;BME280;12421;49.732;20.078;2022-12-18T00:49:29;98177.92;;;-3.67;75.11
24302;BME280;12421;49.732;20.078;2022-12-18T00:59:34;98191.00;;;-3.61;75.27
24302;BME280;12421;49.732;20.078;2022-12-18T01:09:37;98199.84;;;-3.83;74.85
24302;BME280;12421;49.732;20.078;2022-12-18T01:19:41;98208.45;;;-3.93;75.34
24302;BME280;12421;49.732;20.078;2022-12-18T01:29:46;98215.98;;;-3.99;75.43
24302;BME280;12421;49.732;20.078;2022-12-18T01:39:49;98221.16;;;-4.05;75.39
24302;BME280;12421;49.732;20.078;2022-12-18T01:49:57;98230.81;;;-4.15;75.47
24302;BME280;12421;49.732;20.078;2022-12-18T02:00:10;98241.04;;;-4.06;75.30
24302;BME280;12421;49.732;20.078;2022-12-18T02:10:27;98255.69;;;-4.20;75.26
24302;BME280;12421;49.732;20.078;2022-12-18T02:21:12;98273.35;;;-4.25;75.27
24302;BME280;12421;49.732;20.078;2022-12-18T02:31:25;98284.95;;;-4.26;75.06
24302;BME280;12421;49.732;20.078;2022-12-18T02:41:31;98297.40;;;-4.17;75.00
24302;BME280;12421;49.732;20.078;2022-12-18T03:12:44;98329.70;;;-4.13;74.77
24302;BME280;12421;49.732;20.078;2022-12-18T03:22:56;98349.79;;;-4.08;74.70
24302;BME280;12421;49.732;20.078;2022-12-18T03:33:16;98356.84;;;-4.23;74.56
24302;BME280;12421;49.732;20.078;2022-12-18T03:53:59;98374.23;;;-4.09;74.28
24302;BME280;12421;49.732;20.078;2022-12-18T04:04:08;98386.53;;;-4.20;74.18
24302;BME280;12421;49.732;20.078;2022-12-18T04:14:14;98385.19;;;-4.19;74.65
24302;BME280;12421;49.732;20.078;2022-12-18T04:24:24;98407.61;;;-4.12;74.60
24302;BME280;12421;49.732;20.078;2022-12-18T04:34:38;98419.85;;;-4.14;74.64
24302;BME280;12421;49.732;20.078;2022-12-18T04:44:42;98418.02;;;-4.20;74.46
24302;BME280;12421;49.732;20.078;2022-12-18T04:54:46;98437.30;;;-4.27;74.48
24302;BME280;12421;49.732;20.078;2022-12-18T05:04:51;98450.48;;;-4.12;74.86
24302;BME280;12421;49.732;20.078;2022-12-18T05:14:55;98460.52;;;-4.08;74.70
24302;BME280;12421;49.732;20.078;2022-12-18T05:24:59;98465.77;;;-4.17;74.41
24302;BME280;12421;49.732;20.078;2022-12-18T05:35:04;98469.61;;;-4.11;74.83
24302;BME280;12421;49.732;20.078;2022-12-18T05:45:08;98484.00;;;-4.16;74.88
24302;BME280;12421;49.732;20.078;2022-12-18T05:55:12;98498.17;;;-4.05;74.89
24302;BME280;12421;49.732;20.078;2022-12-18T06:05:16;98500.27;;;-3.85;74.78
24302;BME280;12421;49.732;20.078;2022-12-18T06:15:20;98507.93;;;-3.88;74.40
24302;BME280;12421;49.732;20.078;2022-12-18T06:25:25;98523.99;;;-4.03;74.35
24302;BME280;12421;49.732;20.078;2022-12-18T06:35:29;98534.99;;;-4.12;74.58
24302;BME280;12421;49.732;20.078;2022-12-18T06:45:33;98549.05;;;-4.05;74.79
24302;BME280;12421;49.732;20.078;2022-12-18T06:55:37;98556.30;;;-3.93;74.72
24302;BME280;12421;49.732;20.078;2022-12-18T07:05:42;98571.72;;;-3.86;74.47
24302;BME280;12421;49.732;20.078;2022-12-18T07:15:45;98582.56;;;-3.92;74.26
24302;BME280;12421;49.732;20.078;2022-12-18T07:25:49;98591.34;;;-3.99;74.26
24302;BME280;12421;49.732;20.078;2022-12-18T07:35:53;98614.10;;;-3.88;74.36
24302;BME280;12421;49.732;20.078;2022-12-18T07:45:57;98628.35;;;-3.74;74.28
24302;BME280;12421;49.732;20.078;2022-12-18T07:56:08;98635.23;;;-3.73;74.18
24302;BME280;12421;49.732;20.078;2022-12-18T08:06:30;98627.30;;;-3.31;73.98
24302;BME280;12421;49.732;20.078;2022-12-18T08:16:34;98628.20;;;-2.85;73.26
24302;BME280;12421;49.732;20.078;2022-12-18T08:26:39;98636.37;;;-2.51;72.08
24302;BME280;12421;49.732;20.078;2022-12-18T08:36:43;98637.75;;;-2.28;71.46
24302;BME280;12421;49.732;20.078;2022-12-18T08:46:46;98641.41;;;-2.09;70.56
24302;BME280;12421;49.732;20.078;2022-12-18T08:56:51;98641.73;;;-2.12;70.06
24302;BME280;12421;49.732;20.078;2022-12-18T09:06:56;98660.17;;;-2.17;69.54
24302;BME280;12421;49.732;20.078;2022-12-18T09:17:00;98663.50;;;-1.97;69.12
24302;BME280;12421;49.732;20.078;2022-12-18T09:27:04;98671.60;;;-1.81;69.18
24302;BME280;12421;49.732;20.078;2022-12-18T09:37:09;98680.81;;;-1.53;68.66
24302;BME280;12421;49.732;20.078;2022-12-18T09:47:33;98677.56;;;-0.99;68.00
24302;BME280;12421;49.732;20.078;2022-12-18T09:57:43;98676.52;;;-0.57;66.96
24302;BME280;12421;49.732;20.078;2022-12-18T10:07:55;98676.29;;;-0.32;66.59
24302;BME280;12421;49.732;20.078;2022-12-18T10:18:22;98678.52;;;-0.32;65.68
24302;BME280;12421;49.732;20.078;2022-12-18T10:28:30;98680.95;;;-0.41;65.19
24302;BME280;12421;49.732;20.078;2022-12-18T10:38:34;98681.02;;;-0.46;65.12
24302;BME280;12421;49.732;20.078;2022-12-18T10:58:55;98668.27;;;-0.45;64.37
24302;BME280;12421;49.732;20.078;2022-12-18T11:09:05;98653.89;;;-0.72;64.02
24302;BME280;12421;49.732;20.078;2022-12-18T11:19:39;98650.43;;;-1.02;63.82
24302;BME280;12421;49.732;20.078;2022-12-18T11:29:45;98642.77;;;-1.45;63.99
24302;BME280;12421;49.732;20.078;2022-12-18T11:39:53;98633.44;;;-1.94;64.82
24302;BME280;12421;49.732;20.078;2022-12-18T11:50:01;98637.66;;;-2.37;65.75
24302;BME280;12421;49.732;20.078;2022-12-18T12:00:15;98642.04;;;-2.76;66.41
24302;BME280;12421;49.732;20.078;2022-12-18T12:20:51;98666.26;;;-3.38;67.34
24302;BME280;12421;49.732;20.078;2022-12-18T12:31:26;98670.16;;;-3.46;67.95
24302;BME280;12421;49.732;20.078;2022-12-18T12:41:35;98670.19;;;-3.65;68.16
24302;BME280;12421;49.732;20.078;2022-12-18T12:52:08;98680.15;;;-3.88;68.21
24302;BME280;12421;49.732;20.078;2022-12-18T13:43:42;98736.94;;;-5.02;69.37
24302;BME280;12421;49.732;20.078;2022-12-18T13:54:00;98744.59;;;-5.70;68.32
24302;BME280;12421;49.732;20.078;2022-12-18T14:04:12;98760.62;;;-6.33;68.62
24302;BME280;12421;49.732;20.078;2022-12-18T14:14:21;98780.72;;;-6.97;68.34
24302;BME280;12421;49.732;20.078;2022-12-18T14:24:33;98787.78;;;-7.61;68.69
24302;BME280;12421;49.732;20.078;2022-12-18T14:34:38;98804.77;;;-8.16;68.48
24302;BME280;12421;49.732;20.078;2022-12-18T14:44:42;98799.05;;;-8.80;69.10
24302;BME280;12421;49.732;20.078;2022-12-18T14:55:15;98810.83;;;-9.20;69.29
24302;BME280;12421;49.732;20.078;2022-12-18T15:05:30;98813.85;;;-9.73;69.04
24302;BME280;12421;49.732;20.078;2022-12-18T15:25:40;98828.92;;;-10.51;69.20
24302;BME280;12421;49.732;20.078;2022-12-18T15:36:08;98829.63;;;-10.84;69.12
24302;BME280;12421;49.732;20.078;2022-12-18T15:46:19;98837.55;;;-11.36;68.73
24302;BME280;12421;49.732;20.078;2022-12-18T15:56:27;98857.60;;;-11.89;68.91
24302;BME280;12421;49.732;20.078;2022-12-18T16:06:53;98864.66;;;-12.29;69.74
24302;BME280;12421;49.732;20.078;2022-12-18T16:17:18;98878.30;;;-12.59;69.33
24302;BME280;12421;49.732;20.078;2022-12-18T16:27:24;98886.84;;;-12.86;69.55
24302;BME280;12421;49.732;20.078;2022-12-18T16:37:30;98894.98;;;-13.15;69.17
24302;BME280;12421;49.732;20.078;2022-12-18T16:47:38;98902.44;;;-13.39;68.84
24302;BME280;12421;49.732;20.078;2022-12-18T16:57:43;98914.25;;;-13.66;68.65
24302;BME280;12421;49.732;20.078;2022-12-18T17:07:50;98926.63;;;-13.73;68.61
24302;BME280;12421;49.732;20.078;2022-12-18T17:17:58;98933.75;;;-13.80;68.70
24302;BME280;12421;49.732;20.078;2022-12-18T17:28:08;98940.61;;;-14.05;68.35
24302;BME280;12421;49.732;20.078;2022-12-18T17:38:15;98926.15;;;-14.43;68.20
24302;BME280;12421;49.732;20.078;2022-12-18T17:48:21;98913.05;;;-14.75;68.02
24302;BME280;12421;49.732;20.078;2022-12-18T17:58:28;98898.74;;;-15.09;68.40
24302;BME280;12421;49.732;20.078;2022-12-18T18:08:34;98894.08;;;-15.30;68.27
24302;BME280;12421;49.732;20.078;2022-12-18T18:18:41;98895.16;;;-15.29;68.49
24302;BME280;12421;49.732;20.078;2022-12-18T18:28:48;98902.66;;;-15.44;68.37
24302;BME280;12421;49.732;20.078;2022-12-18T18:38:54;98912.83;;;-15.56;68.30
24302;BME280;12421;49.732;20.078;2022-12-18T18:48:59;98929.05;;;-15.41;68.48
24302;BME280;12421;49.732;20.078;2022-12-18T18:59:05;98931.91;;;-15.42;67.85
24302;BME280;12421;49.732;20.078;2022-12-18T19:09:11;98929.32;;;-15.74;67.70
24302;BME280;12421;49.732;20.078;2022-12-18T19:19:35;98934.73;;;-15.98;67.84
24302;BME280;12421;49.732;20.078;2022-12-18T19:30:02;98934.54;;;-16.13;68.05
24302;BME280;12421;49.732;20.078;2022-12-18T19:40:10;98950.42;;;-16.14;67.92
24302;BME280;12421;49.732;20.078;2022-12-18T19:50:18;98957.28;;;-16.07;67.54
24302;BME280;12421;49.732;20.078;2022-12-18T20:00:23;98974.11;;;-16.34;66.71
24302;BME280;12421;49.732;20.078;2022-12-18T20:10:29;98986.51;;;-16.34;67.16
24302;BME280;12421;49.732;20.078;2022-12-18T20:20:36;98996.13;;;-16.55;66.86
24302;BME280;12421;49.732;20.078;2022-12-18T20:30:42;98993.23;;;-16.83;66.46
24302;BME280;12421;49.732;20.078;2022-12-18T20:40:51;99006.45;;;-17.03;66.53
24302;BME280;12421;49.732;20.078;2022-12-18T20:51:19;99009.77;;;-17.23;66.79
24302;BME280;12421;49.732;20.078;2022-12-18T21:01:27;98990.85;;;-17.37;67.09
24302;BME280;12421;49.732;20.078;2022-12-18T21:11:32;98987.15;;;-17.46;66.69
24302;BME280;12421;49.732;20.078;2022-12-18T21:21:55;98986.52;;;-17.40;66.83
24302;BME280;12421;49.732;20.078;2022-12-18T21:32:00;98981.23;;;-17.51;66.50
24302;BME280;12421;49.732;20.078;2022-12-18T21:42:05;98971.66;;;-17.75;66.47
24302;BME280;12421;49.732;20.078;2022-12-18T21:52:28;98955.33;;;-17.95;66.55
24302;BME280;12421;49.732;20.078;2022-12-18T22:02:34;98954.34;;;-18.16;66.44
24302;BME280;12421;49.732;20.078;2022-12-18T22:12:39;98956.16;;;-18.27;66.75
24302;BME280;12421;49.732;20.078;2022-12-18T22:22:47;98954.90;;;-18.27;66.45
24302;BME280;12421;49.732;20.078;2022-12-18T22:32:54;98960.10;;;-18.45;66.47
24302;BME280;12421;49.732;20.078;2022-12-18T22:42:58;98958.54;;;-18.47;66.52
24302;BME280;12421;49.732;20.078;2022-12-18T22:53:02;98944.23;;;-18.63;66.31
24302;BME280;12421;49.732;20.078;2022-12-18T23:03:06;98939.50;;;-18.71;66.75
24302;BME280;12421;49.732;20.078;2022-12-18T23:13:12;98936.07;;;-18.78;66.60
24302;BME280;12421;49.732;20.078;2022-12-18T23:23:17;98941.95;;;-18.84;66.45
24302;BME280;12421;49.732;20.078;2022-12-18T23:33:21;98953.02;;;-18.81;66.62
24302;BME280;12421;49.732;20.078;2022-12-18T23:43:26;98952.98;;;-18.84;66.26
24302;BME280;12421;49.732;20.078;2022-12-18T23:53:30;98963.54;;;-19.02;66.22
